Rorichmoor — V2BV7 — position and weather

sailwx.info

Track history (hours):
 
Tides and Currents Weather Stations Pressure Air Temp Water Temp Dewpoint Dewpoint Depression Visibility Wind Speed Wind Dir Waves Ship Positions

Rorichmoor

Last reported at 2016-Aug-25 22:33 UTC. Time now 2016-Aug-25 23:48 UTC.
Position N 39°09' E 002°06'.

; draft 4.2 m.

Type: Ship (hazmat cat B). MMSI: 304938000.

Date/timePositionNaut miles runAvg speedWind from/ knotsBaromVisibWave heightAir tempDewpointWater temp
2016-Aug-25 22:33N 39°09' E 002°06'10 9.6
2016-Aug-25 21:33N 39°18' E 002°10'10 9.9
2016-Aug-25 20:32N 39°28' E 002°13'10 9.7
2016-Aug-25 19:33N 39°37' E 002°16'10 9.7
2016-Aug-25 18:33N 39°46' E 002°20'10 9.6
2016-Aug-25 17:33N 39°55' E 002°24'10 9.7
2016-Aug-25 16:33N 40°04' E 002°29'10 9.9
2016-Aug-25 15:33N 40°13' E 002°33'1010.0
2016-Aug-25 14:33N 40°23' E 002°38'1010.1
2016-Aug-25 13:33N 40°32' E 002°42'10 9.7
2016-Aug-25 12:33N 40°41' E 002°47'1010.0
2016-Aug-25 11:32N 40°51' E 002°51'1310.7
2016-Aug-25 10:19N 41°03' E 002°57'30 9.9
2016-Aug-25 07:18N 41°31' E 003°10'7 9.8
2016-Aug-25 06:33N 41°38' E 003°14'  
Track history (hours):
 
Tides and Currents Weather Stations Pressure Air Temp Water Temp Dewpoint Dewpoint Depression Visibility Wind Speed Wind Dir Waves Ship Positions

Rorichmoor

Last reported at 2016-Aug-25 22:33 UTC. Time now 2016-Aug-25 23:48 UTC.
Position N 39°09' E 002°06'.

; draft 4.2 m.

Type: Ship (hazmat cat B). MMSI: 304938000.

Date/timePositionNaut miles runAvg speedWind from/ knotsBaromVisibWave heightAir tempDewpointWater temp
2016-Aug-25 22:33N 39°09' E 002°06'10 9.6
2016-Aug-25 21:33N 39°18' E 002°10'10 9.9
2016-Aug-25 20:32N 39°28' E 002°13'10 9.7
2016-Aug-25 19:33N 39°37' E 002°16'10 9.7
2016-Aug-25 18:33N 39°46' E 002°20'10 9.6
2016-Aug-25 17:33N 39°55' E 002°24'10 9.7
2016-Aug-25 16:33N 40°04' E 002°29'10 9.9
2016-Aug-25 15:33N 40°13' E 002°33'1010.0
2016-Aug-25 14:33N 40°23' E 002°38'1010.1
2016-Aug-25 13:33N 40°32' E 002°42'10 9.7
2016-Aug-25 12:33N 40°41' E 002°47'1010.0
2016-Aug-25 11:32N 40°51' E 002°51'1310.7
2016-Aug-25 10:19N 41°03' E 002°57'30 9.9
2016-Aug-25 07:18N 41°31' E 003°10'7 9.8
2016-Aug-25 06:33N 41°38' E 003°14'  

Dump ship's entire track history